West Hallock, Illinois
Current Conditions -  °F | °C
As of 10:55 AM on Monday 22 Dec 2014 (Local Time) from KC75 Reporting Station
Light Rain Light Rain  
Wind Chill: 27°   Ceiling: 1000
Heat Index: 35°   Visibility: 3mi
Dew Point: 33°   Wind: 12mph
Humidity: 91%   Direction: 110°ESE
Pressure: 29.75"   Gusts: 16mph
Location:  40.9686°N, 89.597°W
Report Text: KC75 221655Z AUTO 11010G14KT 3SM -RA BKN010 BKN013 OVC036 02/00 A2975 RMK AO2 T00170004
Loading
Personal Weather Stations






























Interactive Weather Map New forecast layout! Learn more

10-Day Weather Forecast

Advertisements
Track Severe Weather on mobile